Time;durP1;ratioP1;P1;durP2;ratioP2;P2;SDS_P1;SDS_P2;PMS_P1;PMS_P2;Temp;Humidity;BMP_temperature;BMP_pressure;BME280_temperature;BME280_humidity;BME280_pressure;Samples;Min_cycle;Max_cycle;Signal;HPM_P1;HPM_P2
2024/02/02 00:01:14;;;;;;;1999.90;999.90;;;15.70;99.90;;;;;;5072252;28;20043;-71
2024/02/02 00:03:39;;;;;;;1999.90;999.90;;;15.70;99.90;;;;;;5072404;28;20392;-71
2024/02/02 00:06:05;;;;;;;1999.90;999.90;;;15.70;99.90;;;;;;5072581;28;20049;-75
2024/02/02 00:08:31;;;;;;;1999.90;999.90;;;15.60;99.90;;;;;;5072481;28;20107;-76
2024/02/02 00:10:56;;;;;;;1999.90;999.90;;;15.60;99.90;;;;;;5072370;28;20368;-71
2024/02/02 00:13:22;;;;;;;1999.90;999.90;;;15.60;99.90;;;;;;5072802;28;20025;-71
2024/02/02 00:15:48;;;;;;;1999.90;999.90;;;15.60;99.90;;;;;;5072598;28;20032;-76
2024/02/02 00:18:13;;;;;;;1999.90;999.90;;;15.60;99.90;;;;;;5072733;28;20032;-76
2024/02/02 00:20:39;;;;;;;1999.90;999.90;;;15.50;99.90;;;;;;5072315;28;20061;-75
2024/02/02 00:23:04;;;;;;;1999.90;999.90;;;15.60;99.90;;;;;;5072618;28;20360;-71
2024/02/02 00:25:30;;;;;;;1999.90;999.90;;;15.60;99.90;;;;;;5072749;28;20026;-71
2024/02/02 00:27:55;;;;;;;1999.90;999.90;;;15.70;99.90;;;;;;5072243;28;20522;-71
2024/02/02 00:30:21;;;;;;;1999.90;999.90;;;15.60;99.90;;;;;;5072506;28;20063;-71
2024/02/02 00:32:47;;;;;;;1999.90;999.90;;;15.60;99.90;;;;;;5074232;28;20033;-76
2024/02/02 00:35:13;;;;;;;1999.90;999.90;;;15.50;99.90;;;;;;5076309;28;20016;-71
2024/02/02 00:37:39;;;;;;;1999.90;999.90;;;15.60;99.90;;;;;;5076551;28;20239;-71
2024/02/02 00:40:11;;;;;;;1999.90;999.90;;;15.50;99.90;;;;;;5076364;28;20016;-76
2024/02/02 00:42:37;;;;;;;1999.90;999.90;;;15.50;99.90;;;;;;5076261;28;20108;-76
2024/02/02 00:45:03;;;;;;;1999.90;999.90;;;15.50;99.90;;;;;;5076166;28;20436;-76
2024/02/02 00:47:28;;;;;;;1999.90;999.90;;;15.50;99.90;;;;;;5076226;28;20476;-71
2024/02/02 00:49:54;;;;;;;1999.90;999.90;;;15.60;99.90;;;;;;5076060;28;20392;-71
2024/02/02 00:52:19;;;;;;;1999.90;999.90;;;15.60;99.90;;;;;;5075927;28;20479;-71
2024/02/02 00:54:45;;;;;;;1999.90;999.90;;;15.60;99.90;;;;;;5079390;28;20368;-71
2024/02/02 00:57:12;;;;;;;1999.90;999.90;;;15.60;99.90;;;;;;5084700;28;20115;-75
2024/02/02 00:59:38;;;;;;;1999.90;999.90;;;15.60;99.90;;;;;;5075779;28;20025;-76
2024/02/02 01:02:03;;;;;;;1999.90;999.90;;;15.60;99.90;;;;;;5074934;28;20032;-71
2024/02/02 01:04:29;;;;;;;1999.90;999.90;;;15.60;99.90;;;;;;5075362;28;20028;-75
2024/02/02 01:06:54;;;;;;;1999.90;999.90;;;15.60;99.90;;;;;;5075372;28;20135;-71
2024/02/02 01:09:20;;;;;;;1999.90;999.90;;;15.60;99.90;;;;;;5075884;28;20023;-76
2024/02/02 01:11:47;;;;;;;1999.90;999.90;;;15.60;99.90;;;;;;5075841;28;20020;-75
2024/02/02 01:14:13;;;;;;;1999.90;999.90;;;15.60;99.90;;;;;;5075737;28;20050;-71
2024/02/02 01:16:38;;;;;;;1999.90;999.90;;;15.60;99.90;;;;;;5075310;28;20040;-75
2024/02/02 01:19:04;;;;;;;1999.90;999.90;;;15.60;99.90;;;;;;5075560;28;20103;-71
2024/02/02 01:21:30;;;;;;;1999.90;999.90;;;15.70;99.90;;;;;;5075433;28;20032;-76
2024/02/02 01:23:55;;;;;;;1999.90;999.90;;;15.70;99.90;;;;;;5075651;28;20468;-76
2024/02/02 01:26:21;;;;;;;1999.90;999.90;;;15.70;99.90;;;;;;5075400;28;20376;-71
2024/02/02 01:28:47;;;;;;;1999.90;999.90;;;15.70;99.90;;;;;;5074901;28;20058;-76
2024/02/02 01:31:12;;;;;;;1999.90;999.90;;;15.60;99.90;;;;;;5075344;28;20581;-71
2024/02/02 01:33:38;;;;;;;1999.90;999.90;;;15.60;99.90;;;;;;5057220;28;20028;-71
2024/02/02 01:36:04;;;;;;;1999.90;999.90;;;15.60;99.90;;;;;;5075393;28;20032;-71
2024/02/02 01:38:29;;;;;;;1999.90;999.90;;;15.60;99.90;;;;;;5075226;28;20552;-76
2024/02/02 01:40:55;;;;;;;1999.90;999.90;;;15.60;99.90;;;;;;5075113;28;20029;-71
2024/02/02 01:43:23;;;;;;;1999.90;999.90;;;15.60;99.90;;;;;;5074197;28;20028;-71
2024/02/02 01:45:50;;;;;;;1999.90;999.90;;;15.70;99.90;;;;;;5075179;28;20032;-76
2024/02/02 01:48:15;;;;;;;1999.90;999.90;;;15.70;99.90;;;;;;5074818;28;20498;-71
2024/02/02 01:50:41;;;;;;;1999.90;999.90;;;15.70;99.90;;;;;;5074797;28;20031;-71
2024/02/02 01:53:07;;;;;;;1999.90;999.90;;;15.70;99.90;;;;;;5074959;28;20032;-71
2024/02/02 01:55:33;;;;;;;1999.90;999.90;;;15.70;99.90;;;;;;5081381;28;20453;-71
2024/02/02 01:57:59;;;;;;;1999.90;999.90;;;15.70;99.90;;;;;;5080292;28;20044;-71
2024/02/02 02:00:25;;;;;;;1999.90;999.90;;;15.60;99.90;;;;;;5074844;28;20074;-76
2024/02/02 02:02:50;;;;;;;1999.90;999.90;;;15.60;99.90;;;;;;5074267;28;20098;-71
2024/02/02 02:05:16;;;;;;;1999.90;999.90;;;15.60;99.90;;;;;;5074639;28;20048;-76
2024/02/02 02:07:44;;;;;;;1999.90;999.90;;;15.60;99.90;;;;;;5074574;28;20029;-71
2024/02/02 02:10:10;;;;;;;1999.90;999.90;;;15.60;99.90;;;;;;5074608;28;20399;-71
2024/02/02 02:12:36;;;;;;;1999.90;999.90;;;15.60;99.90;;;;;;5074106;28;20028;-71
2024/02/02 02:15:02;;;;;;;1999.90;999.90;;;15.50;99.90;;;;;;5074149;28;20025;-71
2024/02/02 02:17:27;;;;;;;1999.90;999.90;;;15.60;99.90;;;;;;5074531;28;20029;-76
2024/02/02 02:19:53;;;;;;;1999.90;999.90;;;15.60;99.90;;;;;;5074289;28;20017;-71
2024/02/02 02:22:18;;;;;;;1999.90;999.90;;;15.60;99.90;;;;;;5074197;28;20094;-75
2024/02/02 02:24:44;;;;;;;1999.90;999.90;;;15.60;99.90;;;;;;5074267;28;20024;-71
2024/02/02 02:27:10;;;;;;;1999.90;999.90;;;15.60;99.90;;;;;;5074028;28;20043;-71
2024/02/02 02:29:36;;;;;;;1999.90;999.90;;;15.70;99.90;;;;;;5074173;28;20162;-76
2024/02/02 02:32:02;;;;;;;1999.90;999.90;;;15.60;99.90;;;;;;5073936;28;20059;-71
2024/02/02 02:34:27;;;;;;;1999.90;999.90;;;15.70;99.90;;;;;;5073930;28;20098;-75
2024/02/02 02:36:54;;;;;;;1999.90;999.90;;;15.70;99.90;;;;;;5074012;28;20029;-71
2024/02/02 02:39:20;;;;;;;1999.90;999.90;;;15.70;99.90;;;;;;5073910;28;20035;-76
2024/02/02 02:41:46;;;;;;;1999.90;999.90;;;15.70;99.90;;;;;;5073881;28;20032;-72
2024/02/02 02:44:14;;;;;;;1999.90;999.90;;;15.70;99.90;;;;;;5073752;28;20082;-76
2024/02/02 02:46:41;;;;;;;1999.90;999.90;;;15.70;99.90;;;;;;5073690;28;20054;-71
2024/02/02 02:49:06;;;;;;;1999.90;999.90;;;15.70;99.90;;;;;;5073970;28;20074;-71
2024/02/02 02:51:32;;;;;;;1999.90;999.90;;;15.70;99.90;;;;;;5073658;28;20029;-71
2024/02/02 02:53:58;;;;;;;1999.90;999.90;;;15.70;99.90;;;;;;5073780;28;20104;-76
2024/02/02 02:56:23;;;;;;;1999.90;999.90;;;15.60;99.90;;;;;;5085016;28;20399;-76
2024/02/02 02:58:49;;;;;;;1999.90;999.90;;;15.60;99.90;;;;;;5073550;28;20024;-71
2024/02/02 03:01:14;;;;;;;1999.90;999.90;;;15.70;99.90;;;;;;5073421;28;20463;-71
2024/02/02 03:03:40;;;;;;;1999.90;999.90;;;15.70;99.90;;;;;;5073205;28;20077;-76
2024/02/02 03:06:06;;;;;;;1999.90;999.90;;;15.70;99.90;;;;;;5073420;28;20074;-76
2024/02/02 03:08:31;;;;;;;1999.90;999.90;;;15.70;99.90;;;;;;5073282;28;20459;-75
2024/02/02 03:11:00;;;;;;;1999.90;999.90;;;15.70;99.90;;;;;;5073438;28;20031;-76
2024/02/02 03:13:25;;;;;;;1999.90;999.90;;;15.70;99.90;;;;;;5073538;28;20020;-76
2024/02/02 03:15:51;;;;;;;1999.90;999.90;;;15.70;99.90;;;;;;5072642;28;20483;-71
2024/02/02 03:18:17;;;;;;;1999.90;999.90;;;15.70;99.90;;;;;;5073053;28;20127;-75
2024/02/02 03:20:42;;;;;;;1999.90;999.90;;;15.70;99.90;;;;;;5073202;28;20032;-75
2024/02/02 03:23:08;;;;;;;1999.90;999.90;;;15.70;99.90;;;;;;5073145;28;20024;-76
2024/02/02 03:25:34;;;;;;;1999.90;999.90;;;15.70;99.90;;;;;;5073369;28;20421;-71
2024/02/02 03:28:00;;;;;;;1999.90;999.90;;;15.70;99.90;;;;;;5072836;28;20460;-71
2024/02/02 03:30:27;;;;;;;1999.90;999.90;;;15.70;99.90;;;;;;5073345;28;20107;-75
2024/02/02 03:32:53;;;;;;;1999.90;999.90;;;15.70;99.90;;;;;;5072873;28;20017;-76
2024/02/02 03:35:19;;;;;;;1999.90;999.90;;;15.70;99.90;;;;;;5072953;28;20074;-71
2024/02/02 03:37:44;;;;;;;1999.90;999.90;;;15.80;99.90;;;;;;5073207;28;20024;-71
2024/02/02 03:40:11;;;;;;;1999.90;999.90;;;15.70;99.90;;;;;;5072636;28;20064;-71
2024/02/02 03:42:36;;;;;;;1999.90;999.90;;;15.80;99.90;;;;;;5072920;28;20111;-71
2024/02/02 03:45:03;;;;;;;1999.90;999.90;;;15.80;99.90;;;;;;5072962;28;20099;-76
2024/02/02 03:47:29;;;;;;;1999.90;999.90;;;15.80;99.90;;;;;;5072604;28;20537;-75
2024/02/02 03:49:55;;;;;;;1999.90;999.90;;;15.80;99.90;;;;;;5072607;28;20024;-76
2024/02/02 03:52:23;;;;;;;1999.90;999.90;;;15.80;99.90;;;;;;5072748;28;20143;-71
2024/02/02 03:54:50;;;;;;;1999.90;999.90;;;15.80;99.90;;;;;;5076081;28;20066;-71
2024/02/02 03:57:16;;;;;;;1999.90;999.90;;;15.70;99.90;;;;;;5081708;28;20032;-76
2024/02/02 03:59:42;;;;;;;1999.90;999.90;;;15.80;99.90;;;;;;5072904;28;20040;-75
2024/02/02 04:02:07;;;;;;;1999.90;999.90;;;15.70;99.90;;;;;;5071919;28;20081;-75
2024/02/02 04:04:33;;;;;;;1999.90;999.90;;;15.70;99.90;;;;;;5072269;28;20040;-71
2024/02/02 04:06:59;;;;;;;1999.90;999.90;;;15.70;99.90;;;;;;5072061;28;20520;-75
2024/02/02 04:09:24;;;;;;;1999.90;999.90;;;15.70;99.90;;;;;;5072344;28;20056;-70
2024/02/02 04:11:50;;;;;;;1999.90;999.90;;;15.70;99.90;;;;;;5072730;28;20017;-75
2024/02/02 04:14:16;;;;;;;1999.90;999.90;;;15.70;99.90;;;;;;5072499;28;20032;-76
2024/02/02 04:16:41;;;;;;;1999.90;999.90;;;15.70;99.90;;;;;;5071893;28;20028;-71
2024/02/02 04:19:14;;;;;;;1999.90;999.90;;;15.70;99.90;;;;;;5072749;28;20034;-75
2024/02/02 04:21:40;;;;;;;1999.90;999.90;;;15.70;99.90;;;;;;5072223;28;20036;-71
2024/02/02 04:24:06;;;;;;;1999.90;999.90;;;15.70;99.90;;;;;;5072561;28;20033;-75
2024/02/02 04:26:33;;;;;;;1999.90;999.90;;;15.70;99.90;;;;;;5072353;28;20043;-75
2024/02/02 04:28:59;;;;;;;1999.90;999.90;;;15.70;99.90;;;;;;5072425;28;20031;-71
2024/02/02 04:31:24;;;;;;;1999.90;999.90;;;15.70;99.90;;;;;;5072466;28;20024;-71
2024/02/02 04:33:50;;;;;;;1999.90;999.90;;;15.70;99.90;;;;;;5072293;28;20368;-71
2024/02/02 04:36:15;;;;;;;1999.90;999.90;;;15.70;99.90;;;;;;5072218;28;20024;-75
2024/02/02 04:38:42;;;;;;;1999.90;999.90;;;15.70;99.90;;;;;;5072090;28;20043;-75
2024/02/02 04:41:07;;;;;;;1999.90;999.90;;;15.70;99.90;;;;;;5072537;28;20029;-71
2024/02/02 04:43:33;;;;;;;1999.90;999.90;;;15.80;99.90;;;;;;5072016;28;20028;-71
2024/02/02 04:45:59;;;;;;;1999.90;999.90;;;15.80;99.90;;;;;;5072150;28;20040;-71
2024/02/02 04:48:24;;;;;;;1999.90;999.90;;;15.80;99.90;;;;;;5072143;28;20031;-71
2024/02/02 04:50:50;;;;;;;1999.90;999.90;;;15.80;99.90;;;;;;5072001;28;20031;-71
2024/02/02 04:53:16;;;;;;;1999.90;999.90;;;15.80;99.90;;;;;;5072252;28;20031;-75
2024/02/02 04:55:41;;;;;;;1999.90;999.90;;;15.70;99.90;;;;;;5079292;28;20032;-75
2024/02/02 04:58:07;;;;;;;1999.90;999.90;;;15.70;99.90;;;;;;5076521;28;20032;-75
2024/02/02 05:00:32;;;;;;;1999.90;999.90;;;15.70;99.90;;;;;;5071736;28;20027;-75
2024/02/02 05:02:58;;;;;;;1999.90;999.90;;;15.70;99.90;;;;;;5071760;28;20066;-75
2024/02/02 05:05:24;;;;;;;1999.90;999.90;;;15.70;99.90;;;;;;5071955;28;20054;-71
2024/02/02 05:07:50;;;;;;;1999.90;999.90;;;15.70;99.90;;;;;;5072336;28;20033;-71
2024/02/02 05:10:15;;;;;;;1999.90;999.90;;;15.70;99.90;;;;;;5072087;28;20494;-71
2024/02/02 05:12:41;;;;;;;1999.90;999.90;;;15.80;99.90;;;;;;5071918;28;20067;-71
2024/02/02 05:15:07;;;;;;;1999.90;999.90;;;15.80;99.90;;;;;;5072061;28;20029;-75
2024/02/02 05:17:33;;;;;;;1999.90;999.90;;;15.80;99.90;;;;;;5071508;28;20063;-71
2024/02/02 05:19:58;;;;;;;1999.90;999.90;;;15.70;99.90;;;;;;5075579;28;20113;-70
2024/02/02 05:22:24;;;;;;;1999.90;999.90;;;15.70;99.90;;;;;;5075392;28;20031;-75
2024/02/02 05:24:50;;;;;;;1999.90;999.90;;;15.70;99.90;;;;;;5057209;28;20127;-75
2024/02/02 05:27:16;;;;;;;1999.90;999.90;;;15.70;99.90;;;;;;5075174;28;20070;-75
2024/02/02 05:29:45;;;;;;;1999.90;999.90;;;15.70;99.90;;;;;;5084572;28;20115;-75
2024/02/02 05:32:11;;;;;;;1999.90;999.90;;;15.70;99.90;;;;;;5077855;28;20019;-75
2024/02/02 05:34:36;;;;;;;1999.90;999.90;;;15.70;99.90;;;;;;5075116;28;20484;-71
2024/02/02 05:37:02;;;;;;;1999.90;999.90;;;15.60;99.90;;;;;;5075151;28;20425;-71
2024/02/02 05:39:28;;;;;;;1999.90;999.90;;;15.60;99.90;;;;;;5075233;28;20051;-71
2024/02/02 05:41:55;;;;;;;1999.90;999.90;;;15.60;99.90;;;;;;5075186;28;20024;-71
2024/02/02 05:44:20;;;;;;;1999.90;999.90;;;15.60;99.90;;;;;;5074814;28;20052;-71
2024/02/02 05:46:46;;;;;;;1999.90;999.90;;;15.60;99.90;;;;;;5074831;28;20520;-70
2024/02/02 05:49:12;;;;;;;1999.90;999.90;;;15.60;99.90;;;;;;5075019;28;20020;-70
2024/02/02 05:51:37;;;;;;;1999.90;999.90;;;15.50;99.90;;;;;;5074038;28;20383;-71
2024/02/02 05:54:03;;;;;;;1999.90;999.90;;;15.60;99.90;;;;;;5075196;28;20028;-71
2024/02/02 05:56:28;;;;;;;1999.90;999.90;;;15.60;99.90;;;;;;5086633;28;20126;-71
2024/02/02 05:58:54;;;;;;;1999.90;999.90;;;15.60;99.90;;;;;;5074976;28;20086;-71
2024/02/02 06:01:20;;;;;;;1999.90;999.90;;;15.50;99.90;;;;;;5074510;28;20052;-70
2024/02/02 06:03:45;;;;;;;1999.90;999.90;;;15.50;99.90;;;;;;5073264;28;20108;-70
2024/02/02 06:06:11;;;;;;;1999.90;999.90;;;15.50;99.90;;;;;;5074023;28;20396;-70
2024/02/02 06:08:37;;;;;;;1999.90;999.90;;;15.50;99.90;;;;;;5074465;28;20020;-74
2024/02/02 06:11:06;;;;;;;1999.90;999.90;;;15.50;99.90;;;;;;5074348;28;20030;-74
2024/02/02 06:13:33;;;;;;;1999.90;999.90;;;15.50;99.90;;;;;;5079259;28;20031;-70
2024/02/02 06:15:58;;;;;;;1999.90;999.90;;;15.40;99.90;;;;;;5094757;28;20055;-74
2024/02/02 06:18:24;;;;;;;1999.90;999.90;;;15.50;99.90;;;;;;5094101;28;20483;-70
2024/02/02 06:20:50;;;;;;;1999.90;999.90;;;15.40;99.90;;;;;;5094528;28;20028;-70
2024/02/02 06:23:16;;;;;;;1999.90;999.90;;;15.40;99.90;;;;;;5094092;28;20542;-74
2024/02/02 06:25:42;;;;;;;1999.90;999.90;;;15.40;99.90;;;;;;5091282;28;20031;-70
2024/02/02 06:28:08;;;;;;;1999.90;999.90;;;15.40;99.90;;;;;;5074666;28;20032;-70
2024/02/02 06:30:34;;;;;;;1999.90;999.90;;;15.40;99.90;;;;;;5094070;28;20061;-73
2024/02/02 06:32:59;;;;;;;1999.90;999.90;;;15.30;99.90;;;;;;5083875;28;20028;-70
2024/02/02 06:35:29;;;;;;;1999.90;999.90;;;15.30;99.90;;;;;;5073936;28;20027;-74
2024/02/02 06:37:55;;;;;;;1999.90;999.90;;;15.30;99.90;;;;;;5077257;28;20052;-70
2024/02/02 06:40:21;;;;;;;1999.90;999.90;;;15.30;99.90;;;;;;5084533;28;20056;-70
2024/02/02 06:42:46;;;;;;;1999.90;999.90;;;15.30;99.90;;;;;;5094041;28;20040;-70
2024/02/02 06:45:12;;;;;;;1999.90;999.90;;;15.20;99.90;;;;;;5076738;28;20016;-73
2024/02/02 06:47:38;;;;;;;1999.90;999.90;;;15.30;99.90;;;;;;5073569;28;20028;-73
2024/02/02 06:50:05;;;;;;;1999.90;999.90;;;15.20;99.90;;;;;;5073612;28;20020;-70
2024/02/02 06:52:31;;;;;;;1999.90;999.90;;;15.20;99.90;;;;;;5072291;28;20056;-70
2024/02/02 06:54:56;;;;;;;1999.90;999.90;;;15.10;99.90;;;;;;5076656;28;20517;-74
2024/02/02 06:57:24;;;;;;;1999.90;999.90;;;15.10;99.90;;;;;;5090327;28;20552;-70
2024/02/02 06:59:50;;;;;;;1999.90;999.90;;;15.00;99.90;;;;;;5080265;28;20040;-70
2024/02/02 07:02:21;;;;;;;1999.90;999.90;;;15.00;99.90;;;;;;5076886;28;20021;-74
2024/02/02 07:04:50;;;;;;;1999.90;999.90;;;15.10;99.90;;;;;;5082958;28;20040;-70
2024/02/02 07:07:17;;;;;;;1999.90;999.90;;;15.10;99.90;;;;;;5077945;28;20035;-70
2024/02/02 07:10:04;;;;;;;1999.90;999.90;;;15.10;99.90;;;;;;5082422;28;20028;-70
2024/02/02 07:12:47;;;;;;;1999.90;999.90;;;15.20;99.90;;;;;;5067287;28;20025;-70
2024/02/02 07:15:20;;;;;;;1999.90;999.90;;;15.20;99.90;;;;;;5082899;28;20028;-70
2024/02/02 07:17:46;;;;;;;;;;;15.20;99.90;;;;;;5085896;28;20022;-70
2024/02/02 07:20:33;;;;;;;1999.90;999.90;;;15.20;99.90;;;;;;5080517;28;20325;-70
2024/02/02 07:23:01;;;;;;;1999.90;999.90;;;15.20;99.90;;;;;;5069348;28;20083;-75
2024/02/02 07:25:27;;;;;;;1999.90;999.90;;;15.20;99.90;;;;;;5077958;28;20058;-74
2024/02/02 07:28:25;;;;;;;1999.90;999.90;;;15.10;99.90;;;;;;5076156;28;20028;-75
2024/02/02 07:30:55;;;;;;;1999.90;999.90;;;15.20;99.90;;;;;;5065854;28;20115;-70
2024/02/02 07:33:24;;;;;;;1999.90;999.90;;;15.20;99.90;;;;;;5071140;28;20048;-70
2024/02/02 07:35:50;;;;;;;1999.90;999.90;;;15.10;99.90;;;;;;5077345;28;20035;-75
2024/02/02 07:38:34;;;;;;;1999.90;999.90;;;15.10;99.90;;;;;;5073829;28;20024;-69
2024/02/02 07:41:07;;;;;;;1999.90;999.90;;;15.10;99.90;;;;;;5062670;28;20062;-74
2024/02/02 07:43:33;;;;;;;1999.90;999.90;;;15.10;99.90;;;;;;5071035;28;20052;-73
2024/02/02 07:46:03;;;;;;;1999.90;999.90;;;15.10;99.90;;;;;;5073750;28;20028;-70
2024/02/02 07:48:29;;;;;;;1999.90;999.90;;;15.10;99.90;;;;;;5075755;28;20024;-74
2024/02/02 07:50:55;;;;;;;1999.90;999.90;;;15.10;99.90;;;;;;5080412;28;20701;-70
2024/02/02 07:53:21;;;;;;;1999.90;999.90;;;15.20;99.90;;;;;;5081673;28;20025;-73
2024/02/02 07:55:46;;;;;;;1999.90;999.90;;;15.20;99.90;;;;;;5079345;28;20032;-69
2024/02/02 07:58:12;;;;;;;1999.90;999.90;;;15.20;99.90;;;;;;5078315;28;20055;-74
2024/02/02 08:00:37;;;;;;;1999.90;999.90;;;15.20;99.90;;;;;;5089231;28;20372;-69
2024/02/02 08:03:04;;;;;;;1999.90;999.90;;;15.20;99.90;;;;;;5074861;28;20074;-68
2024/02/02 08:05:30;;;;;;;1999.90;999.90;;;15.20;99.90;;;;;;5076048;28;20060;-74
2024/02/02 08:07:55;;;;;;;1999.90;999.90;;;15.20;99.90;;;;;;5074827;28;20047;-75
2024/02/02 08:10:21;;;;;;;1999.90;999.90;;;15.10;99.90;;;;;;5079742;28;20028;-70
2024/02/02 08:12:46;;;;;;;1999.90;999.90;;;15.20;99.90;;;;;;5071890;28;20454;-74
2024/02/02 08:15:12;;;;;;;1999.90;999.90;;;15.20;99.90;;;;;;5079798;28;20474;-71
2024/02/02 08:17:38;;;;;;;1999.90;999.90;;;15.20;99.90;;;;;;5074616;28;20029;-69
2024/02/02 08:20:04;;;;;;;1999.90;999.90;;;15.10;99.90;;;;;;5073584;28;20111;-74
2024/02/02 08:22:29;;;;;;;1999.90;999.90;;;15.10;99.90;;;;;;5070709;28;20062;-69
2024/02/02 08:24:55;;;;;;;1999.90;999.90;;;15.00;99.90;;;;;;5059278;28;20039;-75
2024/02/02 08:27:21;;;;;;;1999.90;999.90;;;15.10;99.90;;;;;;5075165;28;20051;-70
2024/02/02 08:29:47;;;;;;;1999.90;999.90;;;15.10;99.90;;;;;;5071822;28;20147;-70
2024/02/02 08:32:13;;;;;;;1999.90;999.90;;;15.10;99.90;;;;;;5083262;28;20058;-73
2024/02/02 08:34:39;;;;;;;1999.90;999.90;;;15.20;99.90;;;;;;5076032;28;20024;-73
2024/02/02 08:37:04;;;;;;;1999.90;999.90;;;15.10;99.90;;;;;;5081464;28;20486;-73
2024/02/02 08:39:33;;;;;;;1999.90;999.90;;;15.10;99.90;;;;;;5073125;28;20017;-70
2024/02/02 08:42:00;;;;;;;1999.90;999.90;;;15.10;99.90;;;;;;5084142;28;20487;-73
2024/02/02 08:44:30;;;;;;;1999.90;999.90;;;15.20;99.90;;;;;;5076648;28;20099;-73
2024/02/02 08:46:57;;;;;;;1999.90;999.90;;;15.20;99.90;;;;;;5076814;28;20036;-69
2024/02/02 08:49:44;;;;;;;1999.90;999.90;;;15.10;99.90;;;;;;5085264;28;20119;-71
2024/02/02 08:52:12;;;;;;;1999.90;999.90;;;15.20;99.90;;;;;;5068855;28;20024;-70
2024/02/02 08:54:45;;;;;;;1999.90;999.90;;;15.30;99.90;;;;;;5083996;28;20029;-70
2024/02/02 08:57:29;;;;;;;1999.90;999.90;;;15.30;99.90;;;;;;5086570;28;20464;-73
2024/02/02 08:59:55;;;;;;;1999.90;999.90;;;15.30;99.90;;;;;;5066847;28;20418;-72
2024/02/02 09:02:58;;;;;;;1999.90;999.90;;;15.30;99.90;;;;;;5078866;28;20545;-73
2024/02/02 09:05:26;;;;;;;1999.90;999.90;;;15.40;99.90;;;;;;5089552;28;20042;-70
2024/02/02 09:08:33;;;;;;;1999.90;999.90;;;15.30;99.90;;;;;;5083257;28;20059;-70
2024/02/02 09:10:58;;;;;;;1999.90;999.90;;;15.30;99.90;;;;;;5076271;28;20058;-70
2024/02/02 09:13:26;;;;;;;1999.90;999.90;;;15.40;99.90;;;;;;5086258;28;20028;-69
2024/02/02 09:15:52;;;;;;;1999.90;999.90;;;15.30;99.90;;;;;;5078455;28;20050;-71
2024/02/02 09:18:44;;;;;;;1999.90;999.90;;;15.30;99.90;;;;;;5083352;28;20471;-70
2024/02/02 09:21:12;;;;;;;1999.90;999.90;;;15.30;99.90;;;;;;5079545;28;20036;-70
2024/02/02 09:23:43;;;;;;;1999.90;999.90;;;15.40;99.90;;;;;;5082362;28;20486;-70
2024/02/02 09:26:14;;;;;;;1999.90;999.90;;;15.40;99.90;;;;;;5091244;28;20382;-76
2024/02/02 09:28:42;;;;;;;1999.90;999.90;;;15.30;99.90;;;;;;5085105;28;20032;-76
2024/02/02 09:31:13;;;;;;;1999.90;999.90;;;15.30;99.90;;;;;;5089806;28;20490;-70
2024/02/02 09:33:42;;;;;;;1999.90;999.90;;;15.20;99.90;;;;;;5073929;28;20033;-70
2024/02/02 09:36:08;;;;;;;1999.90;999.90;;;15.20;99.90;;;;;;5081029;28;20062;-74
2024/02/02 09:38:34;;;;;;;1999.90;999.90;;;15.20;99.90;;;;;;5090821;28;20063;-74
2024/02/02 09:41:03;;;;;;;1999.90;999.90;;;15.30;99.90;;;;;;5084679;28;20039;-70
2024/02/02 09:44:07;;;;;;;1999.90;999.90;;;15.20;99.90;;;;;;5075758;28;20040;-71
2024/02/02 09:46:45;;;;;;;1999.90;999.90;;;15.30;99.90;;;;;;5073065;28;20025;-70
2024/02/02 09:49:51;;;;;;;1999.90;999.90;;;15.20;99.90;;;;;;5072875;28;20111;-70
2024/02/02 09:52:46;;;;;;;1999.90;999.90;;;15.10;99.90;;;;;;4996378;28;20461;-75
2024/02/02 09:55:21;;;;;;;1999.90;999.90;;;15.10;99.90;;;;;;5073719;28;20044;-71
2024/02/02 09:58:11;;;;;;;1999.90;999.90;;;15.10;99.90;;;;;;5087995;28;20021;-69
2024/02/02 10:00:40;;;;;;;1999.90;999.90;;;15.10;99.90;;;;;;5073789;28;20051;-71
2024/02/02 10:03:40;;;;;;;1999.90;999.90;;;15.10;99.90;;;;;;5081758;28;20028;-69
2024/02/02 10:06:33;;;;;;;1999.90;999.90;;;15.10;99.90;;;;;;5070012;28;20077;-70
2024/02/02 10:09:15;;;;;;;1999.90;999.90;;;15.10;99.90;;;;;;5078271;28;20055;-70
2024/02/02 10:11:48;;;;;;;1999.90;999.90;;;15.10;99.90;;;;;;5079241;28;20154;-70
2024/02/02 10:14:35;;;;;;;1999.90;999.90;;;15.10;99.90;;;;;;5088170;28;20027;-71
2024/02/02 10:17:14;;;;;;;1999.90;999.90;;;15.00;99.90;;;;;;5078884;28;20509;-70
2024/02/02 10:19:58;;;;;;;1999.90;999.90;;;15.10;99.90;;;;;;5073519;28;20077;-74
2024/02/02 10:22:33;;;;;;;1999.90;999.90;;;15.00;99.90;;;;;;5084073;28;20051;-70
2024/02/02 10:25:17;;;;;;;1999.90;999.90;;;15.00;99.90;;;;;;5083205;28;20035;-70
2024/02/02 10:28:03;;;;;;;1999.90;999.90;;;15.00;99.90;;;;;;5079081;28;20068;-76
2024/02/02 10:31:00;;;;;;;1999.90;999.90;;;14.90;99.90;;;;;;5075530;28;20035;-69
2024/02/02 10:33:59;;;;;;;1999.90;999.90;;;14.90;99.90;;;;;;5042341;28;20043;-72
2024/02/02 10:36:43;;;;;;;1999.90;999.90;;;14.90;99.90;;;;;;5078315;28;20036;-69
2024/02/02 10:39:21;;;;;;;1999.90;999.90;;;14.90;99.90;;;;;;5078015;28;20066;-68
2024/02/02 10:42:08;;;;;;;1999.90;999.90;;;14.90;99.90;;;;;;5084510;28;20566;-73
2024/02/02 10:45:08;;;;;;;1999.90;999.90;;;14.80;99.90;;;;;;5089847;28;20496;-73
2024/02/02 10:47:52;;;;;;;1999.90;999.90;;;14.70;99.90;;;;;;5076021;28;20136;-70
2024/02/02 10:50:25;;;;;;;1999.90;999.90;;;14.70;99.90;;;;;;5079672;28;20012;-70
2024/02/02 10:52:54;;;;;;;1999.90;999.90;;;14.60;99.90;;;;;;5076944;28;20028;-69
2024/02/02 10:55:42;;;;;;;1999.90;999.90;;;14.70;99.90;;;;;;5086192;28;20039;-73
2024/02/02 10:58:49;;;;;;;1999.90;999.90;;;14.60;99.90;;;;;;5069441;28;20028;-69
2024/02/02 11:01:21;;;;;;;1999.90;999.90;;;14.50;99.90;;;;;;5072158;28;20072;-69
2024/02/02 11:03:58;;;;;;;1999.90;999.90;;;14.50;99.90;;;;;;5073807;28;20029;-70
2024/02/02 11:06:42;;;;;;;1999.90;999.90;;;14.50;99.90;;;;;;5076188;28;20051;-70
2024/02/02 11:09:48;;;;;;;1999.90;999.90;;;14.40;99.90;;;;;;5069925;28;20027;-70
2024/02/02 11:12:28;;;;;;;1999.90;999.90;;;14.30;99.90;;;;;;5021477;28;20425;-70
2024/02/02 11:15:31;;;;;;;1999.90;999.90;;;14.30;99.90;;;;;;5090371;28;20092;-70
2024/02/02 11:18:14;;;;;;;1999.90;999.90;;;14.20;99.90;;;;;;5058986;28;20040;-70
2024/02/02 11:20:53;;;;;;;1999.90;999.90;;;14.10;99.90;;;;;;5081740;28;20042;-70
2024/02/02 11:23:31;;;;;;;1999.90;999.90;;;14.00;99.90;;;;;;5075305;28;20119;-70
2024/02/02 11:26:07;;;;;;;1999.90;999.90;;;13.90;99.90;;;;;;5078391;28;20063;-72
2024/02/02 11:28:59;;;;;;;1999.90;999.90;;;13.90;99.90;;;;;;5081553;28;20021;-70
2024/02/02 11:31:57;;;;;;;1999.90;999.90;;;13.80;99.90;;;;;;5078041;28;20039;-72
2024/02/02 11:34:49;;;;;;;1999.90;999.90;;;13.90;99.90;;;;;;5078802;28;20020;-72
2024/02/02 11:37:33;;;;;;;1999.90;999.90;;;13.90;99.90;;;;;;5072181;28;20549;-70
2024/02/02 11:40:08;;;;;;;1999.90;999.90;;;13.90;99.90;;;;;;5077062;28;20103;-70
2024/02/02 11:42:38;;;;;;;1999.90;999.90;;;14.00;99.90;;;;;;5083907;28;20038;-70
2024/02/02 11:45:09;;;;;;;1999.90;999.90;;;13.90;99.90;;;;;;5077027;28;20483;-70
2024/02/02 11:47:43;;;;;;;1999.90;999.90;;;13.90;99.90;;;;;;5078585;28;20024;-70
2024/02/02 11:50:12;;;;;;;1999.90;999.90;;;13.90;99.90;;;;;;5075087;28;20024;-70
2024/02/02 11:52:41;;;;;;;1999.90;999.90;;;13.80;99.90;;;;;;5086484;28;20028;-70
2024/02/02 11:55:23;;;;;;;1999.90;999.90;;;13.70;99.90;;;;;;5085176;28;20024;-70
2024/02/02 11:57:57;;;;;;;1999.90;999.90;;;13.50;99.90;;;;;;5083410;28;20024;-72
2024/02/02 12:00:59;;;;;;;1999.90;999.90;;;13.40;99.90;;;;;;5077153;28;20028;-70
2024/02/02 12:03:36;;;;;;;1999.90;999.90;;;13.30;99.90;;;;;;5078862;28;20170;-70
2024/02/02 12:06:12;;;;;;;1999.90;999.90;;;13.30;99.90;;;;;;5061536;28;20039;-70
2024/02/02 12:08:53;;;;;;;1999.90;999.90;;;13.10;99.90;;;;;;5081138;28;20033;-70
2024/02/02 12:11:22;;;;;;;1999.90;999.90;;;13.10;99.90;;;;;;5079621;28;20024;-72
2024/02/02 12:13:51;;;;;;;1999.90;999.90;;;12.90;99.90;;;;;;5071949;28;20040;-70